createdAt,value
2023-03-27T00:01:33.983Z,97995.47
2023-03-27T00:04:02.208Z,97997.09
2023-03-27T00:06:30.206Z,97989.59
2023-03-27T00:08:58.203Z,97982.91
2023-03-27T00:11:26.578Z,97983.75
2023-03-27T00:13:54.928Z,97982.09
2023-03-27T00:16:26.764Z,97974.63
2023-03-27T00:18:55.776Z,97972.16
2023-03-27T00:21:24.523Z,97972.97
2023-03-27T00:23:52.678Z,97965.50
2023-03-27T00:26:22.068Z,97965.47
2023-03-27T00:28:50.093Z,97970.47
2023-03-27T00:31:18.298Z,97960.44
2023-03-27T00:33:47.617Z,97950.44
2023-03-27T00:36:15.744Z,97944.59
2023-03-27T00:38:45.792Z,97942.94
2023-03-27T00:41:13.892Z,97945.44
2023-03-27T00:43:44.140Z,97935.44
2023-03-27T00:46:31.482Z,97932.13
2023-03-27T00:49:03.999Z,97932.13
2023-03-27T00:51:32.391Z,97921.31
2023-03-27T00:54:01.201Z,97912.13
2023-03-27T00:56:30.597Z,97911.25
2023-03-27T00:59:02.348Z,97911.28
2023-03-27T01:01:31.925Z,97912.13
2023-03-27T01:04:03.872Z,97913.78
2023-03-27T01:06:33.108Z,97912.97
2023-03-27T01:09:01.011Z,97911.31
2023-03-27T01:11:39.474Z,97907.97
2023-03-27T01:14:16.638Z,97911.28
2023-03-27T01:16:56.793Z,97902.13
2023-03-27T01:19:57.412Z,97902.13
2023-03-27T01:23:04.015Z,97896.31
2023-03-27T01:26:04.350Z,97897.13
2023-03-27T01:28:41.098Z,97896.31
2023-03-27T01:31:26.419Z,97887.16
2023-03-27T01:34:11.200Z,97884.63
2023-03-27T01:37:02.544Z,97882.13
2023-03-27T01:39:40.165Z,97874.63
2023-03-27T01:42:18.440Z,97885.47
2023-03-27T01:44:52.295Z,97885.47
2023-03-27T01:47:28.257Z,97890.47
2023-03-27T01:50:04.959Z,97895.50
2023-03-27T01:52:37.769Z,97903.84
2023-03-27T01:55:11.714Z,97894.66
2023-03-27T01:57:50.201Z,97884.66
2023-03-27T02:00:23.196Z,97885.50
2023-03-27T02:02:56.679Z,97887.16
2023-03-27T02:05:30.813Z,97875.50
2023-03-27T02:08:05.782Z,97872.19
2023-03-27T02:10:41.664Z,97858.88
2023-03-27T02:13:21.278Z,97863.88
2023-03-27T02:15:51.626Z,97867.22
2023-03-27T02:18:25.637Z,97871.38
2023-03-27T02:20:53.960Z,97868.00
2023-03-27T02:23:23.085Z,97859.69
2023-03-27T02:25:54.243Z,97865.50
2023-03-27T02:28:35.291Z,97869.69
2023-03-27T02:31:32.245Z,97862.13
2023-03-27T02:34:24.410Z,97871.31
2023-03-27T02:37:02.116Z,97859.69
2023-03-27T02:39:57.171Z,97851.34
2023-03-27T02:42:35.984Z,97852.19
2023-03-27T02:45:12.174Z,97855.50
2023-03-27T02:47:43.991Z,97853.84
2023-03-27T02:50:19.044Z,97844.69
2023-03-27T02:52:52.983Z,97845.47
2023-03-27T02:55:26.595Z,97843.00
2023-03-27T02:58:02.298Z,97828.91
2023-03-27T03:00:41.999Z,97838.88
2023-03-27T03:03:35.913Z,97827.22
2023-03-27T03:06:11.955Z,97829.72
2023-03-27T03:08:39.990Z,97820.59
2023-03-27T03:11:14.496Z,97822.25
2023-03-27T03:13:43.913Z,97820.59
2023-03-27T03:16:12.156Z,97823.91
2023-03-27T03:18:41.160Z,97820.56
2023-03-27T03:21:09.603Z,97824.75
2023-03-27T03:23:39.127Z,97817.22
2023-03-27T03:26:08.103Z,97811.44
2023-03-27T03:29:00.536Z,97805.56
2023-03-27T03:31:42.799Z,97795.59
2023-03-27T03:34:11.743Z,97768.09
2023-03-27T03:36:42.007Z,97799.75
2023-03-27T03:39:11.344Z,97792.25
2023-03-27T03:41:39.262Z,97806.41
2023-03-27T03:44:09.072Z,97809.75
2023-03-27T03:46:37.276Z,97817.22
2023-03-27T03:49:05.466Z,97817.22
2023-03-27T03:51:33.712Z,97805.56
2023-03-27T03:54:01.959Z,97792.25
2023-03-27T03:56:30.909Z,97791.38
2023-03-27T03:58:59.130Z,97783.88
2023-03-27T04:01:28.810Z,97780.56
2023-03-27T04:04:02.234Z,97777.25
2023-03-27T04:06:49.051Z,97771.44
2023-03-27T04:09:17.219Z,97776.47
2023-03-27T04:11:58.302Z,97778.94
2023-03-27T04:14:45.291Z,97775.59
2023-03-27T04:17:34.875Z,97782.25
2023-03-27T04:20:05.935Z,97786.44
2023-03-27T04:22:37.871Z,97787.25
2023-03-27T04:25:09.528Z,97790.59
2023-03-27T04:27:37.437Z,97788.94
2023-03-27T04:30:15.926Z,97794.75
2023-03-27T04:33:08.000Z,97798.13
2023-03-27T04:36:05.635Z,97778.94
2023-03-27T04:38:54.266Z,97777.25
2023-03-27T04:41:22.420Z,97780.59
2023-03-27T04:43:50.478Z,97776.47
2023-03-27T04:46:18.610Z,97782.25
2023-03-27T04:48:54.369Z,97780.59
2023-03-27T04:51:36.607Z,97788.09
2023-03-27T04:54:05.234Z,97793.09
2023-03-27T04:56:35.183Z,97796.41
2023-03-27T04:59:04.771Z,97808.06
2023-03-27T05:04:19.545Z,97804.69
2023-03-27T05:07:07.737Z,97814.69
2023-03-27T05:09:35.598Z,97808.03
2023-03-27T05:12:03.633Z,97803.88
2023-03-27T05:14:38.368Z,97805.53
2023-03-27T05:17:11.628Z,97807.19
2023-03-27T05:19:43.386Z,97803.88
2023-03-27T05:22:11.530Z,97815.53
2023-03-27T05:24:49.048Z,97810.53
2023-03-27T05:27:16.977Z,97813.03
2023-03-27T05:29:49.128Z,97823.84
2023-03-27T05:32:18.337Z,97821.31
2023-03-27T05:34:54.493Z,97821.31
2023-03-27T05:37:25.451Z,97822.13
2023-03-27T05:40:15.184Z,97812.16
2023-03-27T05:42:45.221Z,97817.19
2023-03-27T05:45:14.576Z,97823.06
2023-03-27T05:47:47.339Z,97823.91
2023-03-27T05:50:18.119Z,97823.06
2023-03-27T05:52:46.532Z,97826.41
2023-03-27T05:55:15.224Z,97828.84
2023-03-27T05:57:45.176Z,97821.31
2023-03-27T06:00:16.082Z,97824.63
2023-03-27T06:02:45.009Z,97819.63
2023-03-27T06:05:17.256Z,97822.09
2023-03-27T06:07:50.681Z,97822.13
2023-03-27T06:10:20.294Z,97822.16
2023-03-27T06:13:14.698Z,97820.47
2023-03-27T06:15:56.313Z,97825.47
2023-03-27T06:18:53.950Z,97828.75
2023-03-27T06:21:23.936Z,97833.72
2023-03-27T06:23:58.918Z,97831.19
2023-03-27T06:26:28.546Z,97832.91
2023-03-27T06:28:58.477Z,97846.31
2023-03-27T06:31:29.512Z,97845.50
2023-03-27T06:34:17.803Z,97837.22
2023-03-27T06:36:55.696Z,97847.22
2023-03-27T06:39:23.640Z,97846.38
2023-03-27T06:41:53.730Z,97843.91
2023-03-27T06:44:33.325Z,97849.72
2023-03-27T06:47:01.431Z,97857.22
2023-03-27T06:49:49.606Z,97850.53
2023-03-27T06:52:24.748Z,97851.38
2023-03-27T06:54:56.758Z,97852.22
2023-03-27T06:57:24.760Z,97856.41
2023-03-27T07:00:02.412Z,97850.53
2023-03-27T07:02:51.434Z,97851.41
2023-03-27T07:05:49.073Z,97851.38
2023-03-27T07:08:23.426Z,97847.22
2023-03-27T07:13:26.187Z,97850.53
2023-03-27T07:15:55.115Z,97859.69
2023-03-27T07:18:23.737Z,97848.84
2023-03-27T07:20:54.901Z,97866.34
2023-03-27T07:23:26.710Z,97863.84
2023-03-27T07:26:06.970Z,97857.97
2023-03-27T07:29:00.702Z,97854.69
2023-03-27T07:31:37.293Z,97864.69
2023-03-27T07:34:10.768Z,97858.00
2023-03-27T07:37:14.540Z,97856.31
2023-03-27T07:40:01.644Z,97865.47
2023-03-27T07:42:30.260Z,97871.31
2023-03-27T07:45:03.496Z,97867.97
2023-03-27T07:47:32.344Z,97875.47
2023-03-27T07:50:00.671Z,97864.59
2023-03-27T07:52:29.367Z,97865.41
2023-03-27T07:55:06.930Z,97869.53
2023-03-27T07:57:59.872Z,97884.53
2023-03-27T08:00:32.533Z,97872.09
2023-03-27T08:03:11.456Z,97891.25
2023-03-27T08:05:44.225Z,97891.25
2023-03-27T08:08:14.815Z,97883.75
2023-03-27T08:11:05.649Z,97881.22
2023-03-27T08:13:38.157Z,97883.72
2023-03-27T08:16:10.411Z,97880.34
2023-03-27T08:18:38.858Z,97868.63
2023-03-27T08:21:10.426Z,97882.78
2023-03-27T08:23:41.032Z,97883.59
2023-03-27T08:26:28.766Z,97881.00
2023-03-27T08:28:59.350Z,97886.94
2023-03-27T08:31:31.480Z,97874.41
2023-03-27T08:34:01.710Z,97882.72
2023-03-27T08:36:39.340Z,97880.28
2023-03-27T08:39:08.231Z,97876.94
2023-03-27T08:41:58.390Z,97882.78
2023-03-27T08:44:38.713Z,97889.44
2023-03-27T08:47:18.396Z,97910.28
2023-03-27T08:49:58.211Z,97896.94
2023-03-27T08:52:47.817Z,97896.13
2023-03-27T08:55:33.834Z,97900.25
2023-03-27T08:58:21.489Z,97894.38
2023-03-27T09:01:02.070Z,97901.97
2023-03-27T09:03:35.770Z,97895.34
2023-03-27T09:06:10.560Z,97905.38
2023-03-27T09:08:52.436Z,97898.69
2023-03-27T09:11:33.802Z,97900.34
2023-03-27T09:14:13.833Z,97912.09
2023-03-27T09:16:49.498Z,97902.94
2023-03-27T09:19:38.433Z,97899.59
2023-03-27T09:22:12.905Z,97904.63
2023-03-27T09:24:56.416Z,97907.13
2023-03-27T09:27:50.681Z,97919.63
2023-03-27T09:30:42.980Z,97912.97
2023-03-27T09:33:16.444Z,97940.47
2023-03-27T09:35:46.943Z,97917.97
2023-03-27T09:38:26.161Z,97912.09
2023-03-27T09:40:58.412Z,97925.44
2023-03-27T09:43:34.205Z,97936.22
2023-03-27T09:46:04.956Z,97925.38
2023-03-27T09:48:38.698Z,97942.06
2023-03-27T09:51:37.489Z,97957.03
2023-03-27T09:54:08.303Z,97932.03
2023-03-27T09:56:39.471Z,97935.38
2023-03-27T09:59:20.129Z,97951.22
2023-03-27T10:01:51.334Z,97979.56
2023-03-27T10:04:21.917Z,97966.25
2023-03-27T10:07:01.617Z,97967.06
2023-03-27T10:10:07.154Z,98007.13
2023-03-27T10:12:43.018Z,98011.31
2023-03-27T10:15:33.005Z,98010.47
2023-03-27T10:18:07.310Z,98018.78
2023-03-27T10:20:35.944Z,98018.72
2023-03-27T10:23:09.286Z,98025.38
2023-03-27T10:25:39.970Z,98050.25
2023-03-27T10:28:23.922Z,98069.22
2023-03-27T10:31:28.164Z,98061.56
2023-03-27T10:34:05.901Z,98068.00
2023-03-27T10:36:55.388Z,98121.97
2023-03-27T10:39:30.100Z,98116.06
2023-03-27T10:42:27.693Z,98103.53
2023-03-27T10:44:57.633Z,98108.53
2023-03-27T10:47:32.577Z,98139.19
2023-03-27T10:50:12.190Z,98135.00
2023-03-27T10:52:54.530Z,98164.00
2023-03-27T10:56:01.054Z,98141.56
2023-03-27T10:58:35.188Z,98154.03
2023-03-27T11:01:11.350Z,98160.53
2023-03-27T11:03:52.504Z,98163.00
2023-03-27T11:06:28.550Z,98162.06
2023-03-27T11:09:05.897Z,98194.47
2023-03-27T11:11:42.015Z,98214.34
2023-03-27T11:14:18.595Z,98210.16
2023-03-27T11:16:51.573Z,98269.91
2023-03-27T11:19:34.368Z,98221.53
2023-03-27T11:22:29.870Z,98239.69
2023-03-27T11:25:05.866Z,98277.91
2023-03-27T11:27:41.136Z,98268.75
2023-03-27T11:30:26.684Z,98259.47
2023-03-27T11:33:09.700Z,98281.81
2023-03-27T11:35:42.642Z,98267.75
2023-03-27T11:38:36.412Z,98267.59
2023-03-27T11:41:08.075Z,98303.16
2023-03-27T11:43:39.864Z,98285.75
2023-03-27T11:46:36.932Z,98296.47
2023-03-27T11:49:20.607Z,98330.66
2023-03-27T11:52:02.965Z,98349.69
2023-03-27T11:54:48.362Z,98360.09
2023-03-27T11:57:24.698Z,98345.25
2023-03-27T12:00:17.721Z,98386.56
2023-03-27T12:03:14.582Z,98371.97
2023-03-27T12:06:03.040Z,98421.25
2023-03-27T12:08:51.122Z,98425.19
2023-03-27T12:11:23.650Z,98418.56
2023-03-27T12:14:19.321Z,98443.28
2023-03-27T12:17:05.042Z,98428.81
2023-03-27T12:20:17.509Z,98465.81
2023-03-27T12:22:59.936Z,98457.28
2023-03-27T12:26:17.392Z,98440.66
2023-03-27T12:29:23.374Z,98460.72
2023-03-27T12:32:12.063Z,98460.09
2023-03-27T12:34:56.531Z,98477.09
2023-03-27T12:37:34.703Z,98475.34
2023-03-27T12:40:14.123Z,98494.81
2023-03-27T12:42:51.667Z,98503.91
2023-03-27T12:45:24.649Z,98510.00
2023-03-27T12:48:18.694Z,98532.25
2023-03-27T12:50:56.856Z,98535.16
2023-03-27T12:53:55.078Z,98543.09
2023-03-27T12:56:35.429Z,98545.34
2023-03-27T12:59:15.886Z,98592.41
2023-03-27T13:02:06.115Z,98581.19
2023-03-27T13:05:27.302Z,98591.13
2023-03-27T13:08:28.359Z,98597.88
2023-03-27T13:11:34.526Z,98599.22
2023-03-27T13:14:23.960Z,98616.53
2023-03-27T13:17:16.112Z,98637.16
2023-03-27T13:19:56.318Z,98628.84
2023-03-27T13:22:45.822Z,98641.53
2023-03-27T13:25:31.632Z,98653.50
2023-03-27T13:28:35.723Z,98662.72
2023-03-27T13:31:14.266Z,98695.81
2023-03-27T13:33:46.536Z,98681.41
2023-03-27T13:36:27.678Z,98668.38
2023-03-27T13:39:21.156Z,98700.50
2023-03-27T13:41:56.535Z,98720.28
2023-03-27T13:44:41.840Z,98746.41
2023-03-27T13:47:35.539Z,98723.16
2023-03-27T13:50:24.628Z,98737.66
2023-03-27T13:53:17.548Z,98763.63
2023-03-27T13:56:20.933Z,98744.78
2023-03-27T13:59:30.690Z,98730.72
2023-03-27T14:02:13.970Z,98742.91
2023-03-27T14:05:10.997Z,98756.56
2023-03-27T14:08:15.223Z,98757.34
2023-03-27T14:11:27.467Z,98757.19
2023-03-27T14:14:17.805Z,98766.50
2023-03-27T14:17:17.513Z,98787.78
2023-03-27T14:20:19.096Z,98781.31
2023-03-27T14:22:57.905Z,98791.28
2023-03-27T14:25:35.162Z,98803.09
2023-03-27T14:28:32.593Z,98800.78
2023-03-27T14:31:07.200Z,98812.41
2023-03-27T14:33:51.883Z,98819.97
2023-03-27T14:36:24.151Z,98836.22
2023-03-27T14:38:53.986Z,98836.34
2023-03-27T14:41:46.618Z,98852.78
2023-03-27T14:44:15.820Z,98837.78
2023-03-27T14:46:47.989Z,98859.47
2023-03-27T14:49:19.343Z,98880.81
2023-03-27T14:51:55.525Z,98855.63
2023-03-27T14:54:54.657Z,98864.19
2023-03-27T14:57:28.849Z,98869.09
2023-03-27T15:00:00.427Z,98879.69
2023-03-27T15:02:32.521Z,98901.44
2023-03-27T15:05:05.920Z,98879.06
2023-03-27T15:07:35.733Z,98890.00
2023-03-27T15:10:26.259Z,98881.16
2023-03-27T15:13:12.892Z,98891.97
2023-03-27T15:15:50.138Z,98917.34
2023-03-27T15:18:28.217Z,98925.44
2023-03-27T15:21:00.616Z,98918.16
2023-03-27T15:23:36.707Z,98938.44
2023-03-27T15:26:13.160Z,98933.16
2023-03-27T15:28:49.893Z,98943.16
2023-03-27T15:31:18.778Z,98954.03
2023-03-27T15:34:02.198Z,98957.31
2023-03-27T15:36:34.209Z,98939.34
2023-03-27T15:39:04.167Z,98953.09
2023-03-27T15:41:44.001Z,99004.28
2023-03-27T15:44:18.073Z,98977.72
2023-03-27T15:46:50.674Z,98988.25
2023-03-27T15:49:25.878Z,98966.19
2023-03-27T15:51:53.917Z,99019.03
2023-03-27T15:54:33.599Z,98976.88
2023-03-27T15:57:09.768Z,98999.19
2023-03-27T15:59:51.927Z,99001.72
2023-03-27T16:02:25.293Z,98995.16
2023-03-27T16:04:55.855Z,99016.97
2023-03-27T16:07:27.390Z,99002.69
2023-03-27T16:09:58.347Z,98996.84
2023-03-27T16:12:32.983Z,99010.72
2023-03-27T16:15:04.355Z,98997.03
2023-03-27T16:17:40.454Z,99014.84
2023-03-27T16:20:34.114Z,99016.69
2023-03-27T16:23:02.330Z,99027.47
2023-03-27T16:25:30.199Z,99011.63
2023-03-27T16:27:59.833Z,99035.16
2023-03-27T16:30:30.682Z,99039.03
2023-03-27T16:32:59.369Z,99039.31
2023-03-27T16:35:27.838Z,99024.38
2023-03-27T16:37:56.498Z,99027.38
2023-03-27T16:40:24.887Z,99019.84
2023-03-27T16:42:52.707Z,99031.63
2023-03-27T16:45:22.025Z,99033.94
2023-03-27T16:47:53.106Z,99046.84
2023-03-27T16:50:26.748Z,99060.13
2023-03-27T16:52:54.785Z,99077.88
2023-03-27T16:55:23.043Z,99081.66
2023-03-27T16:57:52.458Z,99065.53
2023-03-27T17:00:22.944Z,99070.09
2023-03-27T17:02:51.028Z,99071.47
2023-03-27T17:05:19.046Z,99084.69
2023-03-27T17:07:48.552Z,99078.63
2023-03-27T17:10:17.108Z,99080.91
2023-03-27T17:12:45.431Z,99088.25
2023-03-27T17:15:15.116Z,99079.00
2023-03-27T17:17:45.024Z,99079.63
2023-03-27T17:20:13.388Z,99103.34
2023-03-27T17:22:41.282Z,99093.44
2023-03-27T17:25:10.234Z,99104.75
2023-03-27T17:27:38.561Z,99095.91
2023-03-27T17:30:07.942Z,99125.28
2023-03-27T17:32:35.880Z,99130.97
2023-03-27T17:35:05.601Z,99128.41
2023-03-27T17:37:35.477Z,99129.34
2023-03-27T17:40:09.451Z,99127.50
2023-03-27T17:42:37.743Z,99132.38
2023-03-27T17:45:06.725Z,99148.78
2023-03-27T17:47:34.661Z,99127.94
2023-03-27T17:50:02.646Z,99136.16
2023-03-27T17:52:35.058Z,99149.38
2023-03-27T17:55:02.916Z,99146.91
2023-03-27T17:57:30.871Z,99141.72
2023-03-27T17:59:59.317Z,99149.16
2023-03-27T18:02:27.333Z,99151.78
2023-03-27T18:04:55.436Z,99171.72
2023-03-27T18:07:24.450Z,99166.47
2023-03-27T18:09:53.759Z,99178.06
2023-03-27T18:12:21.655Z,99179.06
2023-03-27T18:14:49.566Z,99179.19
2023-03-27T18:17:20.970Z,99187.47
2023-03-27T18:19:49.032Z,99192.28
2023-03-27T18:22:17.442Z,99201.97
2023-03-27T18:24:45.505Z,99199.19
2023-03-27T18:27:17.102Z,99208.22
2023-03-27T18:29:45.039Z,99214.88
2023-03-27T18:32:13.031Z,99201.44
2023-03-27T18:34:41.380Z,99212.31
2023-03-27T18:37:09.250Z,99216.72
2023-03-27T18:39:37.724Z,99226.47
2023-03-27T18:42:06.073Z,99222.22
2023-03-27T18:44:38.008Z,99206.25
2023-03-27T18:47:06.067Z,99231.19
2023-03-27T18:49:33.954Z,99214.03
2023-03-27T18:52:02.096Z,99227.16
2023-03-27T18:54:30.487Z,99218.69
2023-03-27T18:56:58.438Z,99230.91
2023-03-27T18:59:27.064Z,99224.19
2023-03-27T19:01:56.368Z,99242.31
2023-03-27T19:04:24.346Z,99222.16
2023-03-27T19:06:52.263Z,99238.63
2023-03-27T19:09:23.482Z,99231.91
2023-03-27T19:12:00.535Z,99235.16
2023-03-27T19:14:46.747Z,99232.69
2023-03-27T19:17:45.218Z,99240.16
2023-03-27T19:20:33.430Z,99240.16
2023-03-27T19:23:18.909Z,99249.22
2023-03-27T19:25:54.844Z,99258.19
2023-03-27T19:28:22.888Z,99245.81
2023-03-27T19:30:52.896Z,99257.41
2023-03-27T19:33:22.421Z,99248.22
2023-03-27T19:35:53.620Z,99249.66
2023-03-27T19:38:21.577Z,99247.09
2023-03-27T19:40:49.453Z,99259.47
2023-03-27T19:43:18.872Z,99262.78
2023-03-27T19:46:04.287Z,99234.91
2023-03-27T19:48:37.993Z,99258.53
2023-03-27T19:51:12.367Z,99262.56
2023-03-27T19:53:47.926Z,99261.66
2023-03-27T19:56:16.110Z,99264.19
2023-03-27T19:58:44.022Z,99276.78
2023-03-27T20:01:12.184Z,99270.69
2023-03-27T20:03:41.727Z,99266.44
2023-03-27T20:06:18.793Z,99282.81
2023-03-27T20:08:46.987Z,99270.22
2023-03-27T20:11:16.745Z,99275.19
2023-03-27T20:13:56.213Z,99271.94
2023-03-27T20:16:26.566Z,99277.66
2023-03-27T20:19:04.630Z,99287.50
2023-03-27T20:21:35.017Z,99291.59
2023-03-27T20:24:06.698Z,99280.78
2023-03-27T20:26:40.093Z,99278.44
2023-03-27T20:29:16.219Z,99272.19
2023-03-27T20:31:45.516Z,99272.66
2023-03-27T20:34:19.041Z,99305.25
2023-03-27T20:36:47.392Z,99296.91
2023-03-27T20:39:44.504Z,99298.53
2023-03-27T20:42:15.013Z,99295.22
2023-03-27T20:44:44.395Z,99302.56
2023-03-27T20:47:12.706Z,99298.22
2023-03-27T20:49:46.432Z,99303.13
2023-03-27T20:52:16.209Z,99312.94
2023-03-27T20:54:44.090Z,99309.75
2023-03-27T20:57:13.315Z,99307.06
2023-03-27T20:59:41.255Z,99310.47
2023-03-27T21:02:16.251Z,99307.91
2023-03-27T21:04:44.259Z,99311.16
2023-03-27T21:07:13.424Z,99310.22
2023-03-27T21:09:41.752Z,99316.88
2023-03-27T21:12:09.903Z,99316.88
2023-03-27T21:14:37.762Z,99329.06
2023-03-27T21:17:05.664Z,99322.59
2023-03-27T21:19:33.572Z,99322.59
2023-03-27T21:22:01.373Z,99325.81
2023-03-27T21:24:30.712Z,99326.59
2023-03-27T21:27:00.062Z,99331.47
2023-03-27T21:29:28.035Z,99324.66
2023-03-27T21:31:55.890Z,99323.97
2023-03-27T21:34:24.248Z,99309.59
2023-03-27T21:36:52.356Z,99318.72
2023-03-27T21:39:20.645Z,99318.78
2023-03-27T21:41:49.908Z,99316.88
2023-03-27T21:44:17.753Z,99326.59
2023-03-27T21:46:45.589Z,99322.97
2023-03-27T21:49:13.417Z,99320.34
2023-03-27T21:51:41.230Z,99322.03
2023-03-27T21:54:09.184Z,99320.13
2023-03-27T21:56:37.144Z,99329.53
2023-03-27T21:59:06.547Z,99322.88
2023-03-27T22:01:34.622Z,99336.78
2023-03-27T22:04:02.706Z,99333.38
2023-03-27T22:06:30.967Z,99331.72
2023-03-27T22:08:58.996Z,99334.00
2023-03-27T22:11:26.825Z,99338.94
2023-03-27T22:13:54.875Z,99342.03
2023-03-27T22:16:24.421Z,99345.28
2023-03-27T22:18:52.579Z,99351.13
2023-03-27T22:21:23.000Z,99342.97
2023-03-27T22:23:51.934Z,99344.59
2023-03-27T22:26:20.325Z,99340.50
2023-03-27T22:28:48.256Z,99347.13
2023-03-27T22:31:16.638Z,99351.47
2023-03-27T22:33:46.258Z,99344.19
2023-03-27T22:36:14.887Z,99343.41
2023-03-27T22:38:43.593Z,99345.88
2023-03-27T22:41:12.512Z,99338.63
2023-03-27T22:43:41.066Z,99342.81
2023-03-27T22:46:10.725Z,99341.09
2023-03-27T22:48:38.593Z,99349.13
2023-03-27T22:51:09.033Z,99344.06
2023-03-27T22:53:37.847Z,99352.31
2023-03-27T22:56:07.466Z,99357.31
2023-03-27T22:58:35.601Z,99354.78
2023-03-27T23:01:04.827Z,99361.94
2023-03-27T23:03:33.544Z,99365.78
2023-03-27T23:06:01.807Z,99362.31
2023-03-27T23:08:31.784Z,99362.69
2023-03-27T23:11:01.716Z,99371.72
2023-03-27T23:13:32.345Z,99363.91
2023-03-27T23:16:01.013Z,99377.19
2023-03-27T23:18:29.069Z,99377.78
2023-03-27T23:20:57.775Z,99377.63
2023-03-27T23:23:26.792Z,99384.88
2023-03-27T23:25:57.679Z,99384.03
2023-03-27T23:28:26.361Z,99384.72
2023-03-27T23:30:55.602Z,99389.66
2023-03-27T23:33:25.106Z,99392.88
2023-03-27T23:35:54.306Z,99391.19
2023-03-27T23:38:22.477Z,99399.53
2023-03-27T23:40:57.651Z,99398.50
2023-03-27T23:43:26.690Z,99405.81
2023-03-27T23:45:55.935Z,99396.81
2023-03-27T23:48:24.389Z,99409.06
2023-03-27T23:50:53.223Z,99405.72
2023-03-27T23:53:22.037Z,99399.94
2023-03-27T23:55:50.106Z,99403.34
2023-03-27T23:58:19.628Z,99399.09
